sensor_id;sensor_type;location;lat;lon;timestamp;P1;durP1;ratioP1;P2;durP2;ratioP2
34060;SDS011;20336;-33.424;-70.638;2022-10-26T00:00:41;10.20;;;2.47;;
34060;SDS011;20336;-33.424;-70.638;2022-10-26T00:03:08;8.83;;;2.10;;
34060;SDS011;20336;-33.424;-70.638;2022-10-26T00:05:34;6.60;;;2.20;;
34060;SDS011;20336;-33.424;-70.638;2022-10-26T00:08:01;5.90;;;2.00;;
34060;SDS011;20336;-33.424;-70.638;2022-10-26T00:10:28;5.00;;;2.10;;
34060;SDS011;20336;-33.424;-70.638;2022-10-26T00:12:55;8.70;;;2.40;;
34060;SDS011;20336;-33.424;-70.638;2022-10-26T00:15:22;3.00;;;1.70;;
34060;SDS011;20336;-33.424;-70.638;2022-10-26T00:17:49;5.03;;;1.90;;
34060;SDS011;20336;-33.424;-70.638;2022-10-26T00:20:16;7.80;;;2.20;;
34060;SDS011;20336;-33.424;-70.638;2022-10-26T00:22:43;3.87;;;1.80;;
34060;SDS011;20336;-33.424;-70.638;2022-10-26T00:25:10;10.60;;;2.40;;
34060;SDS011;20336;-33.424;-70.638;2022-10-26T00:27:37;9.67;;;2.40;;
34060;SDS011;20336;-33.424;-70.638;2022-10-26T00:30:04;8.07;;;2.27;;
34060;SDS011;20336;-33.424;-70.638;2022-10-26T00:32:31;8.23;;;2.30;;
34060;SDS011;20336;-33.424;-70.638;2022-10-26T00:34:58;15.57;;;2.60;;
34060;SDS011;20336;-33.424;-70.638;2022-10-26T00:37:25;8.17;;;2.30;;
34060;SDS011;20336;-33.424;-70.638;2022-10-26T00:39:52;7.67;;;2.73;;
34060;SDS011;20336;-33.424;-70.638;2022-10-26T00:42:20;5.33;;;2.43;;
34060;SDS011;20336;-33.424;-70.638;2022-10-26T00:47:17;6.37;;;2.20;;
34060;SDS011;20336;-33.424;-70.638;2022-10-26T00:49:46;5.67;;;2.30;;
34060;SDS011;20336;-33.424;-70.638;2022-10-26T00:52:14;6.00;;;2.57;;
34060;SDS011;20336;-33.424;-70.638;2022-10-26T00:54:42;5.30;;;2.37;;
34060;SDS011;20336;-33.424;-70.638;2022-10-26T00:57:10;5.33;;;2.70;;
34060;SDS011;20336;-33.424;-70.638;2022-10-26T00:59:37;6.37;;;2.50;;
34060;SDS011;20336;-33.424;-70.638;2022-10-26T01:02:04;8.33;;;2.63;;
34060;SDS011;20336;-33.424;-70.638;2022-10-26T01:04:31;4.27;;;2.57;;
34060;SDS011;20336;-33.424;-70.638;2022-10-26T01:06:59;5.17;;;2.47;;
34060;SDS011;20336;-33.424;-70.638;2022-10-26T01:09:26;9.97;;;3.10;;
34060;SDS011;20336;-33.424;-70.638;2022-10-26T01:11:53;9.13;;;2.70;;
34060;SDS011;20336;-33.424;-70.638;2022-10-26T01:14:20;5.00;;;2.30;;
34060;SDS011;20336;-33.424;-70.638;2022-10-26T01:19:44;9.40;;;3.03;;
34060;SDS011;20336;-33.424;-70.638;2022-10-26T01:22:19;5.00;;;2.10;;
34060;SDS011;20336;-33.424;-70.638;2022-10-26T01:27:38;6.70;;;2.87;;
34060;SDS011;20336;-33.424;-70.638;2022-10-26T01:37:41;5.93;;;2.33;;
34060;SDS011;20336;-33.424;-70.638;2022-10-26T01:40:12;4.73;;;2.40;;
34060;SDS011;20336;-33.424;-70.638;2022-10-26T01:42:43;4.50;;;2.20;;
34060;SDS011;20336;-33.424;-70.638;2022-10-26T01:45:12;7.47;;;2.70;;
34060;SDS011;20336;-33.424;-70.638;2022-10-26T01:47:40;7.83;;;2.37;;
34060;SDS011;20336;-33.424;-70.638;2022-10-26T01:50:07;5.13;;;2.73;;
34060;SDS011;20336;-33.424;-70.638;2022-10-26T01:52:35;4.00;;;2.40;;
34060;SDS011;20336;-33.424;-70.638;2022-10-26T01:55:05;7.17;;;2.17;;
34060;SDS011;20336;-33.424;-70.638;2022-10-26T01:57:33;3.60;;;2.10;;
34060;SDS011;20336;-33.424;-70.638;2022-10-26T02:00:04;8.20;;;2.50;;
34060;SDS011;20336;-33.424;-70.638;2022-10-26T02:08:06;10.70;;;2.47;;
34060;SDS011;20336;-33.424;-70.638;2022-10-26T02:10:50;6.70;;;2.40;;
34060;SDS011;20336;-33.424;-70.638;2022-10-26T02:13:29;5.50;;;2.40;;
34060;SDS011;20336;-33.424;-70.638;2022-10-26T02:16:10;5.50;;;1.90;;
34060;SDS011;20336;-33.424;-70.638;2022-10-26T02:18:41;5.87;;;2.20;;
34060;SDS011;20336;-33.424;-70.638;2022-10-26T02:21:13;8.47;;;2.90;;
34060;SDS011;20336;-33.424;-70.638;2022-10-26T02:23:41;3.37;;;2.10;;
34060;SDS011;20336;-33.424;-70.638;2022-10-26T02:26:09;4.63;;;2.23;;
34060;SDS011;20336;-33.424;-70.638;2022-10-26T02:28:40;5.40;;;2.23;;
34060;SDS011;20336;-33.424;-70.638;2022-10-26T02:31:08;5.93;;;2.20;;
34060;SDS011;20336;-33.424;-70.638;2022-10-26T02:33:40;3.23;;;1.97;;
34060;SDS011;20336;-33.424;-70.638;2022-10-26T02:36:10;2.80;;;1.73;;
34060;SDS011;20336;-33.424;-70.638;2022-10-26T02:38:39;3.47;;;1.77;;
34060;SDS011;20336;-33.424;-70.638;2022-10-26T02:41:08;5.30;;;2.10;;
34060;SDS011;20336;-33.424;-70.638;2022-10-26T02:43:43;4.53;;;2.07;;
34060;SDS011;20336;-33.424;-70.638;2022-10-26T02:46:13;4.63;;;1.90;;
34060;SDS011;20336;-33.424;-70.638;2022-10-26T02:48:41;3.93;;;2.03;;
34060;SDS011;20336;-33.424;-70.638;2022-10-26T02:53:45;4.17;;;2.10;;
34060;SDS011;20336;-33.424;-70.638;2022-10-26T02:56:18;5.10;;;1.90;;
34060;SDS011;20336;-33.424;-70.638;2022-10-26T02:58:48;6.47;;;2.03;;
34060;SDS011;20336;-33.424;-70.638;2022-10-26T03:01:15;9.23;;;2.00;;
34060;SDS011;20336;-33.424;-70.638;2022-10-26T03:03:42;5.30;;;2.80;;
34060;SDS011;20336;-33.424;-70.638;2022-10-26T03:06:09;5.37;;;2.60;;
34060;SDS011;20336;-33.424;-70.638;2022-10-26T03:08:36;5.23;;;2.60;;
34060;SDS011;20336;-33.424;-70.638;2022-10-26T03:11:03;5.23;;;2.50;;
34060;SDS011;20336;-33.424;-70.638;2022-10-26T03:13:30;4.40;;;2.50;;
34060;SDS011;20336;-33.424;-70.638;2022-10-26T03:15:57;5.90;;;2.17;;
34060;SDS011;20336;-33.424;-70.638;2022-10-26T03:18:24;4.50;;;2.73;;
34060;SDS011;20336;-33.424;-70.638;2022-10-26T03:20:51;10.60;;;5.63;;
34060;SDS011;20336;-33.424;-70.638;2022-10-26T03:23:18;6.70;;;2.90;;
34060;SDS011;20336;-33.424;-70.638;2022-10-26T03:25:44;4.60;;;2.13;;
34060;SDS011;20336;-33.424;-70.638;2022-10-26T03:28:11;7.90;;;2.43;;
34060;SDS011;20336;-33.424;-70.638;2022-10-26T03:30:38;4.33;;;1.70;;
34060;SDS011;20336;-33.424;-70.638;2022-10-26T03:33:05;4.83;;;2.23;;
34060;SDS011;20336;-33.424;-70.638;2022-10-26T03:35:32;5.07;;;1.60;;
34060;SDS011;20336;-33.424;-70.638;2022-10-26T03:37:59;6.57;;;2.30;;
34060;SDS011;20336;-33.424;-70.638;2022-10-26T03:40:26;4.37;;;2.07;;
34060;SDS011;20336;-33.424;-70.638;2022-10-26T03:42:52;3.90;;;1.77;;
34060;SDS011;20336;-33.424;-70.638;2022-10-26T03:45:19;7.03;;;2.27;;
34060;SDS011;20336;-33.424;-70.638;2022-10-26T03:47:47;4.23;;;1.83;;
34060;SDS011;20336;-33.424;-70.638;2022-10-26T03:50:15;4.73;;;2.30;;
34060;SDS011;20336;-33.424;-70.638;2022-10-26T03:52:43;5.57;;;2.23;;
34060;SDS011;20336;-33.424;-70.638;2022-10-26T03:55:10;3.50;;;1.90;;
34060;SDS011;20336;-33.424;-70.638;2022-10-26T03:57:40;4.90;;;2.00;;
34060;SDS011;20336;-33.424;-70.638;2022-10-26T04:00:08;3.13;;;2.10;;
34060;SDS011;20336;-33.424;-70.638;2022-10-26T04:02:35;3.83;;;2.20;;
34060;SDS011;20336;-33.424;-70.638;2022-10-26T04:05:02;4.70;;;2.07;;
34060;SDS011;20336;-33.424;-70.638;2022-10-26T04:07:29;6.17;;;2.57;;
34060;SDS011;20336;-33.424;-70.638;2022-10-26T04:09:56;4.77;;;2.40;;
34060;SDS011;20336;-33.424;-70.638;2022-10-26T04:12:23;4.53;;;2.43;;
34060;SDS011;20336;-33.424;-70.638;2022-10-26T04:14:50;6.33;;;2.67;;
34060;SDS011;20336;-33.424;-70.638;2022-10-26T04:17:16;4.57;;;2.53;;
34060;SDS011;20336;-33.424;-70.638;2022-10-26T04:19:43;4.27;;;2.70;;
34060;SDS011;20336;-33.424;-70.638;2022-10-26T04:22:11;4.30;;;2.50;;
34060;SDS011;20336;-33.424;-70.638;2022-10-26T04:24:37;5.93;;;2.50;;
34060;SDS011;20336;-33.424;-70.638;2022-10-26T04:27:04;6.30;;;2.40;;
34060;SDS011;20336;-33.424;-70.638;2022-10-26T04:29:31;4.67;;;2.20;;
34060;SDS011;20336;-33.424;-70.638;2022-10-26T04:31:58;6.53;;;2.47;;
34060;SDS011;20336;-33.424;-70.638;2022-10-26T04:34:25;4.70;;;2.00;;
34060;SDS011;20336;-33.424;-70.638;2022-10-26T04:36:51;4.33;;;2.30;;
34060;SDS011;20336;-33.424;-70.638;2022-10-26T04:39:18;7.97;;;2.40;;
34060;SDS011;20336;-33.424;-70.638;2022-10-26T04:41:45;3.90;;;2.37;;
34060;SDS011;20336;-33.424;-70.638;2022-10-26T04:44:12;8.17;;;2.53;;
34060;SDS011;20336;-33.424;-70.638;2022-10-26T04:46:39;7.30;;;2.73;;
34060;SDS011;20336;-33.424;-70.638;2022-10-26T04:49:05;6.40;;;2.63;;
34060;SDS011;20336;-33.424;-70.638;2022-10-26T04:51:32;7.27;;;2.30;;
34060;SDS011;20336;-33.424;-70.638;2022-10-26T04:53:59;5.07;;;2.77;;
34060;SDS011;20336;-33.424;-70.638;2022-10-26T04:56:28;3.80;;;2.00;;
34060;SDS011;20336;-33.424;-70.638;2022-10-26T04:58:55;4.10;;;2.23;;
34060;SDS011;20336;-33.424;-70.638;2022-10-26T05:01:21;6.80;;;2.30;;
34060;SDS011;20336;-33.424;-70.638;2022-10-26T05:03:51;4.57;;;2.20;;
34060;SDS011;20336;-33.424;-70.638;2022-10-26T05:06:18;3.53;;;1.90;;
34060;SDS011;20336;-33.424;-70.638;2022-10-26T05:08:45;2.83;;;1.97;;
34060;SDS011;20336;-33.424;-70.638;2022-10-26T05:11:12;2.83;;;1.80;;
34060;SDS011;20336;-33.424;-70.638;2022-10-26T05:13:39;4.40;;;1.80;;
34060;SDS011;20336;-33.424;-70.638;2022-10-26T05:16:06;3.17;;;1.70;;
34060;SDS011;20336;-33.424;-70.638;2022-10-26T05:18:33;5.67;;;1.83;;
34060;SDS011;20336;-33.424;-70.638;2022-10-26T05:21:00;4.27;;;1.77;;
34060;SDS011;20336;-33.424;-70.638;2022-10-26T05:23:27;4.07;;;1.50;;
34060;SDS011;20336;-33.424;-70.638;2022-10-26T05:25:54;10.13;;;2.03;;
34060;SDS011;20336;-33.424;-70.638;2022-10-26T05:28:21;4.47;;;1.80;;
34060;SDS011;20336;-33.424;-70.638;2022-10-26T05:30:48;4.57;;;2.20;;
34060;SDS011;20336;-33.424;-70.638;2022-10-26T05:33:14;3.87;;;2.53;;
34060;SDS011;20336;-33.424;-70.638;2022-10-26T05:35:41;6.77;;;2.60;;
34060;SDS011;20336;-33.424;-70.638;2022-10-26T05:38:09;7.03;;;2.57;;
34060;SDS011;20336;-33.424;-70.638;2022-10-26T05:40:36;7.87;;;2.37;;
34060;SDS011;20336;-33.424;-70.638;2022-10-26T05:43:03;3.50;;;2.30;;
34060;SDS011;20336;-33.424;-70.638;2022-10-26T05:45:30;7.33;;;2.63;;
34060;SDS011;20336;-33.424;-70.638;2022-10-26T05:47:57;5.20;;;2.60;;
34060;SDS011;20336;-33.424;-70.638;2022-10-26T05:50:24;5.33;;;2.70;;
34060;SDS011;20336;-33.424;-70.638;2022-10-26T05:52:50;5.13;;;2.80;;
34060;SDS011;20336;-33.424;-70.638;2022-10-26T05:55:17;4.83;;;2.90;;
34060;SDS011;20336;-33.424;-70.638;2022-10-26T05:57:44;4.40;;;2.27;;
34060;SDS011;20336;-33.424;-70.638;2022-10-26T06:00:16;4.43;;;2.10;;
34060;SDS011;20336;-33.424;-70.638;2022-10-26T06:05:10;5.53;;;2.80;;
34060;SDS011;20336;-33.424;-70.638;2022-10-26T06:07:37;4.60;;;2.13;;
34060;SDS011;20336;-33.424;-70.638;2022-10-26T06:10:04;7.27;;;2.73;;
34060;SDS011;20336;-33.424;-70.638;2022-10-26T06:12:31;4.13;;;1.63;;
34060;SDS011;20336;-33.424;-70.638;2022-10-26T06:14:58;3.70;;;1.80;;
34060;SDS011;20336;-33.424;-70.638;2022-10-26T06:20:14;8.57;;;2.23;;
34060;SDS011;20336;-33.424;-70.638;2022-10-26T06:22:50;5.00;;;2.40;;
34060;SDS011;20336;-33.424;-70.638;2022-10-26T06:30:31;5.13;;;2.07;;
34060;SDS011;20336;-33.424;-70.638;2022-10-26T06:32:58;5.07;;;1.90;;
34060;SDS011;20336;-33.424;-70.638;2022-10-26T06:35:36;5.03;;;1.90;;
34060;SDS011;20336;-33.424;-70.638;2022-10-26T06:38:13;5.77;;;2.33;;
34060;SDS011;20336;-33.424;-70.638;2022-10-26T06:40:41;8.67;;;1.93;;
34060;SDS011;20336;-33.424;-70.638;2022-10-26T06:43:12;3.97;;;1.80;;
34060;SDS011;20336;-33.424;-70.638;2022-10-26T06:45:42;3.50;;;1.87;;
34060;SDS011;20336;-33.424;-70.638;2022-10-26T06:48:13;2.50;;;1.63;;
34060;SDS011;20336;-33.424;-70.638;2022-10-26T06:50:51;3.53;;;1.70;;
34060;SDS011;20336;-33.424;-70.638;2022-10-26T06:55:58;2.47;;;1.60;;
34060;SDS011;20336;-33.424;-70.638;2022-10-26T06:58:28;2.63;;;1.67;;
34060;SDS011;20336;-33.424;-70.638;2022-10-26T07:00:56;6.00;;;1.63;;
34060;SDS011;20336;-33.424;-70.638;2022-10-26T07:03:23;5.03;;;1.60;;
34060;SDS011;20336;-33.424;-70.638;2022-10-26T07:05:50;2.90;;;1.67;;
34060;SDS011;20336;-33.424;-70.638;2022-10-26T07:08:17;5.60;;;1.93;;
34060;SDS011;20336;-33.424;-70.638;2022-10-26T07:10:45;4.50;;;1.93;;
34060;SDS011;20336;-33.424;-70.638;2022-10-26T07:13:12;4.60;;;1.70;;
34060;SDS011;20336;-33.424;-70.638;2022-10-26T07:15:39;4.10;;;1.80;;
34060;SDS011;20336;-33.424;-70.638;2022-10-26T07:18:07;5.67;;;1.90;;
34060;SDS011;20336;-33.424;-70.638;2022-10-26T07:20:35;2.33;;;1.63;;
34060;SDS011;20336;-33.424;-70.638;2022-10-26T07:23:02;3.37;;;1.47;;
34060;SDS011;20336;-33.424;-70.638;2022-10-26T07:25:31;5.73;;;1.97;;
34060;SDS011;20336;-33.424;-70.638;2022-10-26T07:27:58;4.53;;;1.50;;
34060;SDS011;20336;-33.424;-70.638;2022-10-26T07:30:26;3.77;;;1.80;;
34060;SDS011;20336;-33.424;-70.638;2022-10-26T07:33:00;3.70;;;1.77;;
34060;SDS011;20336;-33.424;-70.638;2022-10-26T07:35:31;4.57;;;1.57;;
34060;SDS011;20336;-33.424;-70.638;2022-10-26T07:37:58;2.37;;;1.70;;
34060;SDS011;20336;-33.424;-70.638;2022-10-26T07:40:25;3.30;;;1.90;;
34060;SDS011;20336;-33.424;-70.638;2022-10-26T07:42:55;2.97;;;1.73;;
34060;SDS011;20336;-33.424;-70.638;2022-10-26T07:45:22;3.67;;;2.03;;
34060;SDS011;20336;-33.424;-70.638;2022-10-26T07:47:49;4.73;;;2.10;;
34060;SDS011;20336;-33.424;-70.638;2022-10-26T07:50:16;6.70;;;2.20;;
34060;SDS011;20336;-33.424;-70.638;2022-10-26T07:52:43;2.73;;;1.80;;
34060;SDS011;20336;-33.424;-70.638;2022-10-26T07:55:10;5.17;;;1.73;;
34060;SDS011;20336;-33.424;-70.638;2022-10-26T07:57:37;2.57;;;1.40;;
34060;SDS011;20336;-33.424;-70.638;2022-10-26T08:00:05;4.67;;;1.67;;
34060;SDS011;20336;-33.424;-70.638;2022-10-26T08:02:32;5.00;;;1.87;;
34060;SDS011;20336;-33.424;-70.638;2022-10-26T08:04:59;4.07;;;1.80;;
34060;SDS011;20336;-33.424;-70.638;2022-10-26T08:07:26;4.13;;;1.97;;
34060;SDS011;20336;-33.424;-70.638;2022-10-26T08:09:53;3.83;;;1.70;;
34060;SDS011;20336;-33.424;-70.638;2022-10-26T08:12:20;3.13;;;1.60;;
34060;SDS011;20336;-33.424;-70.638;2022-10-26T08:14:47;4.57;;;1.90;;
34060;SDS011;20336;-33.424;-70.638;2022-10-26T08:17:14;3.70;;;1.50;;
34060;SDS011;20336;-33.424;-70.638;2022-10-26T08:19:41;4.77;;;1.70;;
34060;SDS011;20336;-33.424;-70.638;2022-10-26T08:22:08;5.50;;;1.57;;
34060;SDS011;20336;-33.424;-70.638;2022-10-26T08:24:35;5.03;;;2.20;;
34060;SDS011;20336;-33.424;-70.638;2022-10-26T08:27:02;5.17;;;2.10;;
34060;SDS011;20336;-33.424;-70.638;2022-10-26T08:29:28;3.77;;;1.60;;
34060;SDS011;20336;-33.424;-70.638;2022-10-26T08:31:55;7.13;;;2.40;;
34060;SDS011;20336;-33.424;-70.638;2022-10-26T08:34:22;2.70;;;1.80;;
34060;SDS011;20336;-33.424;-70.638;2022-10-26T08:36:49;3.47;;;2.03;;
34060;SDS011;20336;-33.424;-70.638;2022-10-26T08:39:16;4.77;;;1.90;;
34060;SDS011;20336;-33.424;-70.638;2022-10-26T08:41:43;4.63;;;1.90;;
34060;SDS011;20336;-33.424;-70.638;2022-10-26T08:44:34;4.80;;;1.73;;
34060;SDS011;20336;-33.424;-70.638;2022-10-26T08:47:09;3.33;;;1.97;;
34060;SDS011;20336;-33.424;-70.638;2022-10-26T08:49:43;2.87;;;1.50;;
34060;SDS011;20336;-33.424;-70.638;2022-10-26T08:52:13;6.93;;;1.70;;
34060;SDS011;20336;-33.424;-70.638;2022-10-26T08:54:43;8.37;;;2.80;;
34060;SDS011;20336;-33.424;-70.638;2022-10-26T08:57:18;4.07;;;2.00;;
34060;SDS011;20336;-33.424;-70.638;2022-10-26T08:59:48;5.07;;;2.57;;
34060;SDS011;20336;-33.424;-70.638;2022-10-26T09:02:18;3.83;;;1.93;;
34060;SDS011;20336;-33.424;-70.638;2022-10-26T09:04:46;5.17;;;2.53;;
34060;SDS011;20336;-33.424;-70.638;2022-10-26T09:15:11;6.17;;;3.00;;
34060;SDS011;20336;-33.424;-70.638;2022-10-26T09:20:19;7.73;;;2.50;;
34060;SDS011;20336;-33.424;-70.638;2022-10-26T09:23:15;4.77;;;2.80;;
34060;SDS011;20336;-33.424;-70.638;2022-10-26T09:25:45;4.30;;;2.73;;
34060;SDS011;20336;-33.424;-70.638;2022-10-26T09:28:15;5.07;;;2.87;;
34060;SDS011;20336;-33.424;-70.638;2022-10-26T09:30:43;4.70;;;2.23;;
34060;SDS011;20336;-33.424;-70.638;2022-10-26T09:33:16;6.87;;;2.87;;
34060;SDS011;20336;-33.424;-70.638;2022-10-26T09:35:58;5.47;;;3.00;;
34060;SDS011;20336;-33.424;-70.638;2022-10-26T09:39:09;13.63;;;3.10;;
34060;SDS011;20336;-33.424;-70.638;2022-10-26T09:43:51;4.90;;;2.50;;
34060;SDS011;20336;-33.424;-70.638;2022-10-26T09:46:26;9.70;;;3.30;;
34060;SDS011;20336;-33.424;-70.638;2022-10-26T09:48:55;6.47;;;2.47;;
34060;SDS011;20336;-33.424;-70.638;2022-10-26T09:51:23;9.27;;;2.67;;
34060;SDS011;20336;-33.424;-70.638;2022-10-26T09:53:52;3.57;;;2.33;;
34060;SDS011;20336;-33.424;-70.638;2022-10-26T09:56:19;9.87;;;2.67;;
34060;SDS011;20336;-33.424;-70.638;2022-10-26T09:58:52;5.60;;;2.30;;
34060;SDS011;20336;-33.424;-70.638;2022-10-26T10:06:45;5.90;;;2.50;;
34060;SDS011;20336;-33.424;-70.638;2022-10-26T10:09:16;5.47;;;2.57;;
34060;SDS011;20336;-33.424;-70.638;2022-10-26T10:14:16;7.10;;;2.60;;
34060;SDS011;20336;-33.424;-70.638;2022-10-26T10:19:36;4.57;;;2.30;;
34060;SDS011;20336;-33.424;-70.638;2022-10-26T10:24:37;4.77;;;2.47;;
34060;SDS011;20336;-33.424;-70.638;2022-10-26T10:29:42;5.57;;;2.40;;
34060;SDS011;20336;-33.424;-70.638;2022-10-26T10:32:17;6.63;;;2.70;;
34060;SDS011;20336;-33.424;-70.638;2022-10-26T10:34:50;5.47;;;3.07;;
34060;SDS011;20336;-33.424;-70.638;2022-10-26T10:37:22;5.73;;;2.70;;
34060;SDS011;20336;-33.424;-70.638;2022-10-26T10:39:50;5.60;;;2.87;;
34060;SDS011;20336;-33.424;-70.638;2022-10-26T10:42:21;8.00;;;3.10;;
34060;SDS011;20336;-33.424;-70.638;2022-10-26T10:44:52;9.83;;;3.03;;
34060;SDS011;20336;-33.424;-70.638;2022-10-26T10:47:23;8.37;;;2.80;;
34060;SDS011;20336;-33.424;-70.638;2022-10-26T10:49:52;13.20;;;3.20;;
34060;SDS011;20336;-33.424;-70.638;2022-10-26T10:52:24;9.30;;;3.23;;
34060;SDS011;20336;-33.424;-70.638;2022-10-26T10:54:53;11.43;;;3.23;;
34060;SDS011;20336;-33.424;-70.638;2022-10-26T10:58:07;8.37;;;3.30;;
34060;SDS011;20336;-33.424;-70.638;2022-10-26T11:00:14;9.37;;;2.50;;
34060;SDS011;20336;-33.424;-70.638;2022-10-26T11:05:30;6.67;;;3.10;;
34060;SDS011;20336;-33.424;-70.638;2022-10-26T11:08:03;8.03;;;2.93;;
34060;SDS011;20336;-33.424;-70.638;2022-10-26T11:10:37;10.30;;;3.50;;
34060;SDS011;20336;-33.424;-70.638;2022-10-26T11:13:19;8.63;;;3.33;;
34060;SDS011;20336;-33.424;-70.638;2022-10-26T11:15:47;10.03;;;3.33;;
34060;SDS011;20336;-33.424;-70.638;2022-10-26T11:18:17;9.53;;;3.77;;
34060;SDS011;20336;-33.424;-70.638;2022-10-26T11:20:48;6.47;;;3.63;;
34060;SDS011;20336;-33.424;-70.638;2022-10-26T11:23:24;9.37;;;3.40;;
34060;SDS011;20336;-33.424;-70.638;2022-10-26T11:25:55;7.23;;;3.27;;
34060;SDS011;20336;-33.424;-70.638;2022-10-26T11:30:58;9.20;;;3.17;;
34060;SDS011;20336;-33.424;-70.638;2022-10-26T11:33:34;8.17;;;3.60;;
34060;SDS011;20336;-33.424;-70.638;2022-10-26T11:39:30;6.77;;;3.50;;
34060;SDS011;20336;-33.424;-70.638;2022-10-26T11:46:45;10.00;;;3.87;;
34060;SDS011;20336;-33.424;-70.638;2022-10-26T11:51:45;9.53;;;4.33;;
34060;SDS011;20336;-33.424;-70.638;2022-10-26T11:54:26;8.90;;;4.83;;
34060;SDS011;20336;-33.424;-70.638;2022-10-26T11:56:55;15.20;;;4.30;;
34060;SDS011;20336;-33.424;-70.638;2022-10-26T11:59:29;19.23;;;4.73;;
34060;SDS011;20336;-33.424;-70.638;2022-10-26T12:02:01;11.70;;;5.20;;
34060;SDS011;20336;-33.424;-70.638;2022-10-26T12:04:31;15.13;;;5.30;;
34060;SDS011;20336;-33.424;-70.638;2022-10-26T12:06:59;7.23;;;4.70;;
34060;SDS011;20336;-33.424;-70.638;2022-10-26T12:09:31;9.23;;;5.63;;
34060;SDS011;20336;-33.424;-70.638;2022-10-26T12:15:13;9.30;;;4.90;;
34060;SDS011;20336;-33.424;-70.638;2022-10-26T12:22:57;9.97;;;5.73;;
34060;SDS011;20336;-33.424;-70.638;2022-10-26T12:25:24;11.43;;;5.90;;
34060;SDS011;20336;-33.424;-70.638;2022-10-26T12:27:52;12.80;;;6.20;;
34060;SDS011;20336;-33.424;-70.638;2022-10-26T12:32:50;13.43;;;5.60;;
34060;SDS011;20336;-33.424;-70.638;2022-10-26T12:37:57;14.87;;;6.63;;
34060;SDS011;20336;-33.424;-70.638;2022-10-26T12:42:57;11.87;;;6.53;;
34060;SDS011;20336;-33.424;-70.638;2022-10-26T12:45:44;15.17;;;6.77;;
34060;SDS011;20336;-33.424;-70.638;2022-10-26T12:48:21;11.63;;;6.37;;
34060;SDS011;20336;-33.424;-70.638;2022-10-26T12:50:52;15.93;;;6.60;;
34060;SDS011;20336;-33.424;-70.638;2022-10-26T12:53:19;10.70;;;5.93;;
34060;SDS011;20336;-33.424;-70.638;2022-10-26T13:00:49;11.85;;;7.20;;
34060;SDS011;20336;-33.424;-70.638;2022-10-26T13:06:01;10.10;;;6.15;;
34060;SDS011;20336;-33.424;-70.638;2022-10-26T13:08:37;14.05;;;7.03;;
34060;SDS011;20336;-33.424;-70.638;2022-10-26T13:11:26;13.85;;;7.20;;
34060;SDS011;20336;-33.424;-70.638;2022-10-26T13:13:55;18.30;;;7.18;;
34060;SDS011;20336;-33.424;-70.638;2022-10-26T13:16:23;15.02;;;6.95;;
34060;SDS011;20336;-33.424;-70.638;2022-10-26T13:18:51;11.30;;;6.68;;
34060;SDS011;20336;-33.424;-70.638;2022-10-26T13:21:19;16.10;;;6.75;;
34060;SDS011;20336;-33.424;-70.638;2022-10-26T13:23:56;17.52;;;8.13;;
34060;SDS011;20336;-33.424;-70.638;2022-10-26T13:26:27;18.38;;;7.47;;
34060;SDS011;20336;-33.424;-70.638;2022-10-26T13:28:55;12.60;;;7.55;;
34060;SDS011;20336;-33.424;-70.638;2022-10-26T13:38:52;14.77;;;7.97;;
34060;SDS011;20336;-33.424;-70.638;2022-10-26T13:41:25;16.25;;;8.02;;
34060;SDS011;20336;-33.424;-70.638;2022-10-26T13:43:54;13.55;;;8.25;;
34060;SDS011;20336;-33.424;-70.638;2022-10-26T13:46:26;12.90;;;7.13;;
34060;SDS011;20336;-33.424;-70.638;2022-10-26T13:48:56;12.48;;;7.28;;
34060;SDS011;20336;-33.424;-70.638;2022-10-26T13:51:25;12.80;;;7.43;;
34060;SDS011;20336;-33.424;-70.638;2022-10-26T13:54:06;13.02;;;8.25;;
34060;SDS011;20336;-33.424;-70.638;2022-10-26T13:56:39;14.40;;;8.25;;
34060;SDS011;20336;-33.424;-70.638;2022-10-26T13:59:10;13.82;;;7.90;;
34060;SDS011;20336;-33.424;-70.638;2022-10-26T14:01:38;14.68;;;8.48;;
34060;SDS011;20336;-33.424;-70.638;2022-10-26T14:04:15;11.88;;;7.80;;
34060;SDS011;20336;-33.424;-70.638;2022-10-26T14:06:51;15.32;;;8.32;;
34060;SDS011;20336;-33.424;-70.638;2022-10-26T14:09:19;13.93;;;8.40;;
34060;SDS011;20336;-33.424;-70.638;2022-10-26T14:11:53;13.48;;;8.57;;
34060;SDS011;20336;-33.424;-70.638;2022-10-26T14:14:27;14.13;;;8.90;;
34060;SDS011;20336;-33.424;-70.638;2022-10-26T14:16:55;16.38;;;8.38;;
34060;SDS011;20336;-33.424;-70.638;2022-10-26T14:19:26;21.67;;;9.50;;
34060;SDS011;20336;-33.424;-70.638;2022-10-26T14:21:53;16.02;;;8.23;;
34060;SDS011;20336;-33.424;-70.638;2022-10-26T14:24:22;17.73;;;8.77;;
34060;SDS011;20336;-33.424;-70.638;2022-10-26T14:26:49;17.77;;;8.75;;
34060;SDS011;20336;-33.424;-70.638;2022-10-26T14:29:17;19.02;;;8.52;;
34060;SDS011;20336;-33.424;-70.638;2022-10-26T14:31:44;16.08;;;8.45;;
34060;SDS011;20336;-33.424;-70.638;2022-10-26T14:34:11;15.55;;;8.68;;
34060;SDS011;20336;-33.424;-70.638;2022-10-26T14:36:39;17.35;;;8.65;;
34060;SDS011;20336;-33.424;-70.638;2022-10-26T14:39:14;13.02;;;8.07;;
34060;SDS011;20336;-33.424;-70.638;2022-10-26T14:41:42;23.83;;;10.05;;
34060;SDS011;20336;-33.424;-70.638;2022-10-26T14:44:14;17.95;;;9.27;;
34060;SDS011;20336;-33.424;-70.638;2022-10-26T14:46:42;21.02;;;9.43;;
34060;SDS011;20336;-33.424;-70.638;2022-10-26T14:49:15;15.88;;;8.95;;
34060;SDS011;20336;-33.424;-70.638;2022-10-26T14:51:43;20.50;;;9.40;;
34060;SDS011;20336;-33.424;-70.638;2022-10-26T14:54:23;21.33;;;9.18;;
34060;SDS011;20336;-33.424;-70.638;2022-10-26T14:56:51;20.95;;;10.02;;
34060;SDS011;20336;-33.424;-70.638;2022-10-26T14:59:22;20.05;;;10.07;;
34060;SDS011;20336;-33.424;-70.638;2022-10-26T15:04:26;22.35;;;10.38;;
34060;SDS011;20336;-33.424;-70.638;2022-10-26T15:06:59;21.58;;;10.25;;
34060;SDS011;20336;-33.424;-70.638;2022-10-26T15:09:28;21.88;;;10.52;;
34060;SDS011;20336;-33.424;-70.638;2022-10-26T15:11:56;20.77;;;11.20;;
34060;SDS011;20336;-33.424;-70.638;2022-10-26T15:14:23;30.85;;;11.60;;
34060;SDS011;20336;-33.424;-70.638;2022-10-26T15:16:53;24.63;;;10.80;;
34060;SDS011;20336;-33.424;-70.638;2022-10-26T15:19:21;31.67;;;12.20;;
34060;SDS011;20336;-33.424;-70.638;2022-10-26T15:21:48;20.38;;;10.55;;
34060;SDS011;20336;-33.424;-70.638;2022-10-26T15:26:46;20.98;;;10.50;;
34060;SDS011;20336;-33.424;-70.638;2022-10-26T15:32:01;23.65;;;10.70;;
34060;SDS011;20336;-33.424;-70.638;2022-10-26T15:34:28;26.33;;;11.93;;
34060;SDS011;20336;-33.424;-70.638;2022-10-26T15:36:55;30.20;;;12.02;;
34060;SDS011;20336;-33.424;-70.638;2022-10-26T15:39:24;22.52;;;11.98;;
34060;SDS011;20336;-33.424;-70.638;2022-10-26T15:41:51;26.98;;;12.25;;
34060;SDS011;20336;-33.424;-70.638;2022-10-26T15:44:19;21.48;;;11.65;;
34060;SDS011;20336;-33.424;-70.638;2022-10-26T15:46:46;21.58;;;11.18;;
34060;SDS011;20336;-33.424;-70.638;2022-10-26T15:49:18;34.15;;;12.65;;
34060;SDS011;20336;-33.424;-70.638;2022-10-26T15:51:46;18.10;;;10.00;;
34060;SDS011;20336;-33.424;-70.638;2022-10-26T15:54:13;23.02;;;10.07;;
34060;SDS011;20336;-33.424;-70.638;2022-10-26T15:56:41;19.83;;;10.45;;
34060;SDS011;20336;-33.424;-70.638;2022-10-26T15:59:14;28.35;;;11.40;;
34060;SDS011;20336;-33.424;-70.638;2022-10-26T16:01:42;22.33;;;11.38;;
34060;SDS011;20336;-33.424;-70.638;2022-10-26T16:04:09;21.88;;;12.02;;
34060;SDS011;20336;-33.424;-70.638;2022-10-26T16:06:37;21.92;;;11.73;;
34060;SDS011;20336;-33.424;-70.638;2022-10-26T16:09:04;29.67;;;10.75;;
34060;SDS011;20336;-33.424;-70.638;2022-10-26T16:11:32;17.42;;;11.93;;
34060;SDS011;20336;-33.424;-70.638;2022-10-26T16:13:59;20.77;;;11.73;;
34060;SDS011;20336;-33.424;-70.638;2022-10-26T16:16:25;23.05;;;11.40;;